Terminal Aerodrome Forecast
Issued by NWS

Home | Current Version | Previous Version | Text Only | Print | Product List | Glossary On
Versions: 1 2 3 4 5 6 7 8 9 10 11 12 13 14 15 16 17 18 19 20 21 22 23 24 25 26 27 28 29 30 31 32 33 34 35 36 37 38 39 40 41 42 43 44 45 46 47 48 49
000
FTUS43 KMKX 231223 AAA
TAFUES
TAF AMD
KUES 231223Z 2312/2412 19006KT P6SM SCT015 OVC024
     FM231800 17006KT 6SM -SHRA BKN025
     FM232000 15006KT 5SM -SHRA BR SCT025 OVC035
     FM240000 09005KT 2SM -SHRA BR SCT015 OVC025
     FM240300 04005KT 3SM -SHRA BR OVC015
     FM240600 03006KT 2SM -SHRA BR OVC004=

USA.gov is the U.S. government's official web portal to all federal, state and local government web resources and services.